Time;durP1;ratioP1;P1;durP2;ratioP2;P2;SDS_P1;SDS_P2;PMS_P1;PMS_P2;Temp;Humidity;BMP_temperature;BMP_pressure;BME280_temperature;BME280_humidity;BME280_pressure;Samples;Min_cycle;Max_cycle;Signal;HPM_P1;HPM_P2
2022/06/19 00:00:45;;;;;;;6.25;1.40;;;;;;;17.43;63.75;100755.94;5034796;28;20721;-78
2022/06/19 00:03:22;;;;;;;6.55;1.42;;;;;;;17.38;63.48;100745.56;5036040;28;20117;-81
2022/06/19 00:05:51;;;;;;;8.88;1.40;;;;;;;17.29;64.04;100739.97;5038516;28;20180;-80
2022/06/19 00:08:19;;;;;;;6.40;1.27;;;;;;;17.29;63.67;100742.63;5032953;28;20038;-80
2022/06/19 00:10:48;;;;;;;9.15;1.70;;;;;;;17.24;63.35;100740.25;5037354;28;20105;-80
2022/06/19 00:13:17;;;;;;;6.65;1.60;;;;;;;17.23;63.35;100741.19;5033674;28;20810;-76
2022/06/19 00:15:44;;;;;;;12.55;1.60;;;;;;;17.14;63.69;100729.25;5033122;28;20045;-77
2022/06/19 00:18:14;;;;;;;6.97;1.50;;;;;;;17.08;63.58;100726.97;5032677;28;20179;-76
2022/06/19 00:20:41;;;;;;;7.40;1.70;;;;;;;17.01;63.88;100723.81;5030595;28;20041;-77
2022/06/19 00:23:14;;;;;;;8.75;1.50;;;;;;;16.99;63.72;100716.88;5035680;28;20050;-80
2022/06/19 00:25:41;;;;;;;7.32;1.70;;;;;;;16.92;64.01;100706.53;5034627;28;20044;-80
2022/06/19 00:28:09;;;;;;;4.78;1.63;;;;;;;16.90;64.01;100713.75;5042886;28;20054;-80
2022/06/19 00:30:36;;;;;;;8.35;1.92;;;;;;;16.83;64.21;100712.41;5037711;28;20042;-81
2022/06/19 00:33:03;;;;;;;10.55;2.28;;;;;;;16.77;64.49;100704.78;5040893;28;20081;-80
2022/06/19 00:35:30;;;;;;;11.20;1.73;;;;;;;16.74;64.66;100702.31;5036340;28;20100;-79
2022/06/19 00:38:00;;;;;;;9.40;2.53;;;;;;;16.72;64.50;100702.41;5037288;28;20041;-78
2022/06/19 00:40:30;;;;;;;7.85;1.75;;;;;;;16.65;64.45;100702.84;5029703;28;20042;-76
2022/06/19 00:42:57;;;;;;;8.80;1.88;;;;;;;16.58;64.62;100702.34;5033127;28;20104;-78
2022/06/19 00:45:37;;;;;;;7.82;1.58;;;;;;;16.56;64.47;100707.75;5029952;28;20128;-78
2022/06/19 00:48:37;;;;;;;8.20;1.83;;;;;;;16.46;64.81;100714.56;5036965;28;20147;-78
2022/06/19 00:51:05;;;;;;;9.38;1.75;;;;;;;16.40;64.80;100718.41;5043386;28;20062;-81
2022/06/19 00:53:46;;;;;;;9.75;1.50;;;;;;;16.42;64.71;100718.31;5037866;28;20041;-79
2022/06/19 00:56:19;;;;;;;9.23;1.90;;;;;;;16.30;64.87;100735.84;5033542;28;20774;-80
2022/06/19 00:58:52;;;;;;;9.93;2.17;;;;;;;16.30;64.82;100738.50;5033789;28;20052;-81
2022/06/19 01:01:25;;;;;;;9.18;1.90;;;;;;;16.23;64.75;100740.63;5038617;28;20041;-79
2022/06/19 01:04:09;;;;;;;10.15;1.80;;;;;;;16.18;64.84;100736.50;5034023;28;20447;-79
2022/06/19 01:06:38;;;;;;;10.20;2.08;;;;;;;16.07;65.00;100731.81;5030359;28;20044;-80
2022/06/19 01:09:05;;;;;;;9.13;2.33;;;;;;;16.08;64.89;100738.81;5035645;28;20129;-79
2022/06/19 01:11:38;;;;;;;11.43;2.22;;;;;;;16.03;64.71;100741.72;5045134;28;20095;-79
2022/06/19 01:14:11;;;;;;;9.68;2.00;;;;;;;15.97;64.91;100744.72;5042814;28;20488;-78
2022/06/19 01:16:38;;;;;;;10.50;1.80;;;;;;;15.93;65.04;100756.47;5036878;28;20077;-78
2022/06/19 01:19:09;;;;;;;7.25;1.70;;;;;;;15.92;64.72;100750.28;5036639;28;20042;-78
2022/06/19 01:21:56;;;;;;;7.68;1.65;;;;;;;15.92;64.60;100739.66;5031985;28;20049;-78
2022/06/19 01:24:57;;;;;;;7.85;1.70;;;;;;;15.85;64.78;100727.66;5038364;28;20434;-78
2022/06/19 01:30:16;;;;;;;7.50;1.90;;;;;;;15.72;65.01;100719.44;5037900;28;20038;-78
2022/06/19 01:32:49;;;;;;;5.53;1.48;;;;;;;15.79;64.71;100725.28;5034607;28;20045;-78
2022/06/19 01:35:20;;;;;;;8.30;1.67;;;;;;;15.79;64.08;100715.53;5040364;28;20772;-78
2022/06/19 01:37:50;;;;;;;11.55;2.03;;;;;;;15.72;64.53;100711.47;5039097;28;20081;-78
2022/06/19 01:40:27;;;;;;;9.07;1.63;;;;;;;15.71;64.29;100720.41;5037826;28;20042;-78
2022/06/19 01:42:55;;;;;;;7.82;1.85;;;;;;;15.61;64.83;100809.53;5038952;28;20054;-78
2022/06/19 01:45:23;;;;;;;8.90;2.05;;;;;;;15.61;65.28;100905.19;5039608;28;20042;-78
2022/06/19 01:47:51;;;;;;;6.25;1.88;;;;;;;15.66;65.05;100900.47;5036785;28;20303;-78
2022/06/19 01:50:31;;;;;;;5.25;1.40;;;;;;;15.73;64.09;100784.94;5032815;28;20086;-80
2022/06/19 01:53:13;;;;;;;9.10;1.90;;;;;;;15.67;63.71;100778.16;5036597;28;20045;-78
2022/06/19 01:55:41;;;;;;;12.35;2.40;;;;;;;15.58;63.97;100830.94;5039235;28;20096;-78
2022/06/19 01:58:09;;;;;;;7.30;1.98;;;;;;;15.47;64.44;100858.91;5034443;28;20791;-78
2022/06/19 02:00:37;;;;;;;10.50;1.65;;;;;;;15.52;64.09;100824.97;5041902;28;20046;-79
2022/06/19 02:03:44;;;;;;;11.13;1.83;;;;;;;15.54;63.57;100787.72;5036414;28;20049;-78
2022/06/19 02:06:17;;;;;;;8.85;1.35;;;;;;;15.51;63.21;100787.88;5033757;28;20045;-77
2022/06/19 02:08:45;;;;;;;10.38;2.47;;;;;;;15.41;63.11;100782.19;5033183;28;20037;-79
2022/06/19 02:11:16;;;;;;;11.30;1.65;;;;;;;15.36;63.22;100794.81;5039116;28;20073;-79
2022/06/19 02:13:45;;;;;;;8.10;1.90;;;;;;;15.31;62.98;100792.41;5049275;28;20041;-79
2022/06/19 02:16:19;;;;;;;17.08;2.40;;;;;;;15.27;63.23;100801.47;5038952;28;20054;-79
2022/06/19 02:18:51;;;;;;;6.68;1.52;;;;;;;15.25;63.12;100807.78;5034653;28;20049;-78
2022/06/19 02:21:53;;;;;;;6.40;1.55;;;;;;;15.22;63.08;100808.81;5037219;28;20041;-79
2022/06/19 02:24:24;;;;;;;10.43;1.67;;;;;;;15.20;63.22;100818.66;5039956;28;20570;-79
2022/06/19 02:26:51;;;;;;;6.45;1.50;;;;;;;15.27;61.82;100819.19;5035534;28;20042;-78
2022/06/19 02:29:21;;;;;;;9.60;1.67;;;;;;;15.26;60.99;100812.16;5032381;28;20854;-78
2022/06/19 02:31:52;;;;;;;11.35;2.03;;;;;;;15.21;60.17;100820.38;5039208;28;20054;-77
2022/06/19 02:34:36;;;;;;;8.38;1.80;;;;;;;15.19;59.33;100824.88;5035080;28;20048;-77
2022/06/19 02:37:26;;;;;;;9.57;1.33;;;;;;;15.15;56.88;100824.19;5040300;28;20121;-77
2022/06/19 02:40:19;;;;;;;9.02;1.38;;;;;;;15.10;57.29;100836.84;5039152;28;20064;-77
2022/06/19 02:42:48;;;;;;;8.95;1.33;;;;;;;15.14;55.79;100841.06;5034801;28;20046;-77
2022/06/19 02:45:26;;;;;;;7.03;1.83;;;;;;;15.14;54.87;100822.47;5033994;28;20120;-78
2022/06/19 02:47:58;;;;;;;9.98;1.60;;;;;;;15.14;53.38;100827.78;5033088;28;20042;-77
2022/06/19 02:50:33;;;;;;;5.55;1.27;;;;;;;15.10;53.66;100843.94;5035840;28;20046;-79
2022/06/19 02:53:01;;;;;;;7.80;1.38;;;;;;;15.06;53.86;100838.75;5040877;28;20045;-78
2022/06/19 02:55:29;;;;;;;9.63;1.55;;;;;;;15.14;52.36;100826.94;5048784;28;20108;-78
2022/06/19 02:57:56;;;;;;;8.85;1.75;;;;;;;15.08;52.46;100822.78;5037864;28;20491;-78
2022/06/19 03:00:27;;;;;;;6.20;1.17;;;;;;;15.03;52.60;100840.72;5039461;28;20037;-78
2022/06/19 03:03:35;;;;;;;6.05;1.35;;;;;;;15.04;53.17;100850.41;5042967;28;20045;-78
2022/06/19 03:06:05;;;;;;;9.98;2.03;;;;;;;15.05;52.94;100842.38;5039423;28;20104;-79
2022/06/19 03:08:33;;;;;;;8.90;1.52;;;;;;;15.10;52.25;100849.25;5053402;28;20100;-79
2022/06/19 03:11:05;;;;;;;6.13;1.60;;;;;;;15.10;51.79;100849.25;5039684;28;20081;-77
2022/06/19 03:13:32;;;;;;;8.68;1.40;;;;;;;15.06;51.66;100837.91;5032516;28;20042;-78
2022/06/19 03:16:07;;;;;;;8.15;1.73;;;;;;;15.10;51.37;100833.31;5032005;28;20085;-78
2022/06/19 03:18:36;;;;;;;9.15;1.60;;;;;;;15.04;52.03;100823.84;5050187;28;20045;-78
2022/06/19 03:21:04;;;;;;;5.07;1.17;;;;;;;15.06;51.92;100840.56;5033848;28;20120;-78
2022/06/19 03:23:31;;;;;;;6.35;1.17;;;;;;;15.07;52.13;100844.94;5033391;28;20479;-77
2022/06/19 03:25:59;;;;;;;9.13;1.63;;;;;;;15.03;52.40;100888.50;5038785;28;20942;-78
2022/06/19 03:28:27;;;;;;;5.93;1.50;;;;;;;15.04;52.67;100957.47;5045431;28;20049;-77
2022/06/19 03:30:55;;;;;;;6.00;1.50;;;;;;;15.07;53.43;100978.53;5037467;28;20045;-78
2022/06/19 03:33:24;;;;;;;6.43;1.00;;;;;;;15.07;53.97;100946.69;5035608;28;20049;-76
2022/06/19 03:35:52;;;;;;;7.68;1.30;;;;;;;15.10;53.36;100889.94;5041087;28;20499;-78
2022/06/19 03:38:21;;;;;;;7.45;1.52;;;;;;;15.09;53.43;100896.19;5052219;28;20053;-79
2022/06/19 03:40:49;;;;;;;7.40;1.25;;;;;;;15.06;53.53;100897.19;5035183;28;20112;-77
2022/06/19 03:43:17;;;;;;;8.32;1.48;;;;;;;15.09;53.53;100897.97;5046456;28;20037;-75
2022/06/19 03:45:44;;;;;;;6.50;1.27;;;;;;;15.07;54.12;100893.59;5050464;28;20132;-78
2022/06/19 03:48:13;;;;;;;7.63;1.25;;;;;;;15.13;53.46;100879.16;5047135;28;20045;-78
2022/06/19 03:50:41;;;;;;;9.15;1.48;;;;;;;15.16;53.05;100878.16;5032419;28;20045;-77
2022/06/19 03:53:09;;;;;;;9.02;1.27;;;;;;;15.15;53.50;100869.31;5037477;28;20100;-78
2022/06/19 03:55:36;;;;;;;13.60;1.70;;;;;;;15.08;53.92;100854.63;5042405;28;20108;-76
2022/06/19 03:58:03;;;;;;;6.80;1.08;;;;;;;15.18;53.36;100858.56;5033551;28;20060;-77
2022/06/19 04:00:32;;;;;;;8.73;1.20;;;;;;;15.20;53.54;100869.09;5033870;28;20924;-77
2022/06/19 04:02:59;;;;;;;7.40;1.38;;;;;;;15.24;53.19;100864.50;5032360;28;20500;-76
2022/06/19 04:05:26;;;;;;;7.07;1.40;;;;;;;15.24;53.47;100849.44;5038197;28;20046;-76
2022/06/19 04:07:54;;;;;;;5.45;1.27;;;;;;;15.31;53.19;100832.25;5047909;28;20041;-76
2022/06/19 04:10:22;;;;;;;7.88;1.13;;;;;;;15.31;53.08;100818.97;5052011;28;20046;-77
2022/06/19 04:12:53;;;;;;;4.00;1.10;;;;;;;15.31;53.36;100815.47;5043591;28;20112;-79
2022/06/19 04:15:21;;;;;;;7.68;1.23;;;;;;;15.30;53.29;100816.41;5032248;28;20164;-77
2022/06/19 04:17:49;;;;;;;4.93;1.00;;;;;;;15.27;53.01;100813.88;5033878;28;20161;-79
2022/06/19 04:20:16;;;;;;;8.70;1.50;;;;;;;15.21;53.61;100858.38;5047451;28;20122;-78
2022/06/19 04:22:43;;;;;;;9.90;1.13;;;;;;;15.27;53.76;100891.75;5047534;28;20050;-78
2022/06/19 04:25:13;;;;;;;9.07;0.98;;;;;;;15.34;53.63;100919.75;5045204;28;20049;-79
2022/06/19 04:27:43;;;;;;;6.68;1.13;;;;;;;15.35;54.12;100883.41;5044305;28;20579;-78
2022/06/19 04:30:12;;;;;;;7.70;0.80;;;;;;;15.45;53.01;100851.94;5044837;28;20041;-78
2022/06/19 04:32:39;;;;;;;10.68;1.20;;;;;;;15.46;53.15;100880.25;5048502;28;20076;-77
2022/06/19 04:35:07;;;;;;;7.78;1.30;;;;;;;15.46;53.21;100827.97;5047420;28;20065;-77
2022/06/19 04:37:35;;;;;;;5.43;1.00;;;;;;;15.43;53.56;100798.03;5049404;28;20108;-76
2022/06/19 04:40:03;;;;;;;6.00;1.13;;;;;;;15.44;53.71;100784.66;5032811;28;20121;-77
2022/06/19 04:42:31;;;;;;;7.57;1.00;;;;;;;15.44;54.12;100766.06;5034277;28;20073;-77
2022/06/19 04:44:58;;;;;;;5.00;0.90;;;;;;;15.43;54.52;100751.06;5042132;28;20053;-77
2022/06/19 04:47:26;;;;;;;7.07;1.40;;;;;;;15.40;55.09;100722.03;5039457;28;20046;-76
2022/06/19 04:49:53;;;;;;;7.93;1.30;;;;;;;15.41;55.26;100718.44;5066898;28;20048;-76
2022/06/19 04:52:21;;;;;;;5.25;0.90;;;;;;;15.44;54.77;100715.59;5073273;28;20512;-78
2022/06/19 04:54:48;;;;;;;4.25;0.88;;;;;;;15.51;54.55;100700.19;5038711;28;20042;-78
2022/06/19 04:57:16;;;;;;;4.40;1.00;;;;;;;15.56;54.58;100698.16;5038636;28;20068;-76
2022/06/19 04:59:44;;;;;;;7.55;1.15;;;;;;;15.56;54.65;100684.88;5039480;28;20069;-76
2022/06/19 05:02:13;;;;;;;3.92;0.73;;;;;;;15.65;54.61;100692.34;5052150;28;20078;-76
2022/06/19 05:04:41;;;;;;;6.97;0.98;;;;;;;15.74;53.80;100685.66;5053570;28;20476;-75
2022/06/19 05:07:08;;;;;;;5.80;0.85;;;;;;;15.86;53.94;100705.47;5053463;28;20509;-76
2022/06/19 05:09:35;;;;;;;6.68;1.30;;;;;;;16.00;53.65;100688.75;5055173;28;20046;-77
2022/06/19 05:12:03;;;;;;;6.55;1.25;;;;;;;16.18;53.64;100691.31;5055181;28;20045;-78
2022/06/19 05:14:30;;;;;;;7.05;1.50;;;;;;;16.63;51.47;100667.47;5055507;28;20045;-77
2022/06/19 05:16:57;;;;;;;6.97;1.10;;;;;;;16.73;50.93;100655.34;5045741;28;20054;-75
2022/06/19 05:19:25;;;;;;;8.63;1.17;;;;;;;16.95;50.42;100638.97;5053322;28;20464;-76
2022/06/19 05:21:52;;;;;;;9.02;1.60;;;;;;;17.24;49.74;100652.34;5053678;28;20041;-75
2022/06/19 05:24:19;;;;;;;8.20;1.27;;;;;;;17.64;48.29;100649.84;5048977;28;20050;-78
2022/06/19 05:26:50;;;;;;;6.55;0.90;;;;;;;18.06;47.68;100671.22;5050918;28;20045;-78
2022/06/19 05:29:17;;;;;;;8.88;1.08;;;;;;;18.63;45.71;100671.94;5044152;28;20045;-78
2022/06/19 05:31:45;;;;;;;5.32;0.90;;;;;;;19.10;44.39;100683.06;5055981;28;20051;-76
2022/06/19 05:34:12;;;;;;;8.63;1.77;;;;;;;19.45;43.47;100671.75;5052213;28;20084;-75
2022/06/19 05:36:43;;;;;;;4.25;0.90;;;;;;;19.64;41.99;100670.44;5040696;28;20627;-78
2022/06/19 05:39:11;;;;;;;8.32;1.15;;;;;;;19.87;41.66;100666.16;5046287;28;20046;-78
2022/06/19 05:41:40;;;;;;;5.97;1.30;;;;;;;20.24;41.70;100665.28;5038702;28;20074;-78
2022/06/19 05:44:10;;;;;;;4.68;1.20;;;;;;;20.81;40.10;100676.28;5037476;28;20046;-80
2022/06/19 05:46:37;;;;;;;6.13;1.23;;;;;;;21.07;38.29;100701.03;5058137;28;20064;-79
2022/06/19 05:49:05;;;;;;;6.85;1.20;;;;;;;21.74;37.40;100717.34;5051555;28;20037;-78
2022/06/19 05:51:32;;;;;;;5.57;1.20;;;;;;;22.34;35.66;100717.88;5043702;28;20048;-74
2022/06/19 05:53:59;;;;;;;6.78;1.10;;;;;;;22.87;34.33;100708.19;5036013;28;20045;-72
2022/06/19 05:56:28;;;;;;;4.65;0.90;;;;;;;23.41;32.88;100717.06;5034639;28;20050;-76
2022/06/19 05:58:55;;;;;;;6.55;1.23;;;;;;;23.81;32.10;100723.50;5037708;28;21002;-78
2022/06/19 06:01:25;;;;;;;4.07;0.95;;;;;;;24.08;31.53;100727.44;5047477;28;20132;-77
2022/06/19 06:03:53;;;;;;;5.75;0.93;;;;;;;24.41;31.67;100749.63;5043470;28;20045;-78
2022/06/19 06:06:27;;;;;;;6.60;1.10;;;;;;;24.61;30.57;100772.03;5037791;28;20042;-77
2022/06/19 06:08:55;;;;;;;7.18;1.00;;;;;;;24.67;31.30;100814.63;5046601;28;20041;-78
2022/06/19 06:11:24;;;;;;;6.88;1.30;;;;;;;24.88;31.51;100854.97;5049132;28;20069;-78
2022/06/19 06:13:51;;;;;;;5.20;1.20;;;;;;;24.86;30.57;100848.00;5039693;28;20390;-76
2022/06/19 06:16:21;;;;;;;9.13;0.95;;;;;;;24.74;31.12;100852.66;5036441;28;20050;-77
2022/06/19 06:18:50;;;;;;;3.53;0.90;;;;;;;24.61;30.78;100860.97;5039137;28;20057;-77
2022/06/19 06:21:23;;;;;;;5.45;1.05;;;;;;;23.99;30.94;100861.88;5034657;28;20038;-77
2022/06/19 06:23:53;;;;;;;4.32;0.85;;;;;;;22.79;33.24;100856.63;5039947;28;20052;-74
2022/06/19 06:26:30;;;;;;;5.65;1.20;;;;;;;21.48;35.46;100857.84;5043706;28;20765;-75
2022/06/19 06:28:59;;;;;;;7.57;1.40;;;;;;;20.41;38.07;100862.97;5043550;28;20041;-73
2022/06/19 06:31:28;;;;;;;6.65;1.10;;;;;;;19.84;40.54;100894.56;5046330;28;20104;-75
2022/06/19 06:33:58;;;;;;;6.57;1.20;;;;;;;19.42;41.49;100898.31;5048406;28;20657;-76
2022/06/19 06:36:29;;;;;;;5.05;1.20;;;;;;;19.05;43.00;100933.66;5042712;28;20049;-74
2022/06/19 06:38:56;;;;;;;5.28;1.10;;;;;;;18.77;43.39;100930.06;5049313;28;20037;-76
2022/06/19 06:41:24;;;;;;;6.43;1.15;;;;;;;18.59;43.81;100943.59;5044688;28;20467;-76
2022/06/19 06:43:51;;;;;;;5.15;1.33;;;;;;;18.39;44.82;100938.63;5047058;28;20099;-75
2022/06/19 06:46:23;;;;;;;13.43;1.33;;;;;;;18.25;45.51;100943.03;5045644;28;20041;-76
2022/06/19 06:48:55;;;;;;;6.30;1.40;;;;;;;18.09;46.34;100952.91;5046402;28;20067;-75
2022/06/19 06:51:26;;;;;;;6.78;1.33;;;;;;;17.89;46.67;100994.09;5047355;28;20041;-76
2022/06/19 06:54:00;;;;;;;9.60;1.25;;;;;;;17.78;47.44;101048.00;5038820;28;20059;-75
2022/06/19 06:56:35;;;;;;;8.57;1.40;;;;;;;17.62;49.02;101062.25;5043534;28;20444;-76
2022/06/19 06:59:03;;;;;;;6.03;1.65;;;;;;;17.51;50.69;101072.63;5044171;28;20057;-75
2022/06/19 07:01:32;;;;;;;6.75;1.20;;;;;;;17.33;52.03;101102.03;5044977;28;20038;-74
2022/06/19 07:04:01;;;;;;;12.95;1.63;;;;;;;17.20;53.65;101111.63;5046566;28;20049;-75
2022/06/19 07:06:31;;;;;;;8.02;1.33;;;;;;;17.00;53.82;101080.72;5037412;28;20042;-75
2022/06/19 07:09:01;;;;;;;10.77;1.48;;;;;;;16.87;54.62;101115.09;5044931;28;20038;-74
2022/06/19 07:11:46;;;;;;;10.45;1.40;;;;;;;16.71;55.64;101107.94;5037024;28;20812;-75
2022/06/19 07:14:17;;;;;;;6.68;1.40;;;;;;;16.54;56.81;101106.13;5042750;28;20044;-75
2022/06/19 07:16:45;;;;;;;8.77;1.25;;;;;;;16.39;58.06;101102.47;5043548;28;20507;-75
2022/06/19 07:19:12;;;;;;;10.40;1.38;;;;;;;16.27;57.99;101090.66;5043164;28;20041;-75
2022/06/19 07:21:40;;;;;;;6.75;1.55;;;;;;;16.21;57.54;101084.78;5033180;28;20066;-75
2022/06/19 07:24:07;;;;;;;13.18;1.70;;;;;;;16.19;58.56;101068.88;5042071;28;20129;-74
2022/06/19 07:26:35;;;;;;;9.13;1.95;;;;;;;16.21;58.57;101085.63;5050151;28;20045;-74
2022/06/19 07:29:03;;;;;;;9.10;1.75;;;;;;;16.28;59.88;101107.44;5043614;28;20096;-75
2022/06/19 07:31:34;;;;;;;7.93;1.65;;;;;;;16.46;59.62;101093.22;5049609;28;20037;-75
2022/06/19 07:34:03;;;;;;;10.07;1.98;;;;;;;16.59;58.95;101100.56;5035158;28;20042;-75
2022/06/19 07:36:31;;;;;;;9.35;2.00;;;;;;;16.70;59.04;101114.19;5027441;28;20807;-75
2022/06/19 07:38:58;;;;;;;6.32;1.10;;;;;;;16.81;59.11;101118.94;5035487;28;20119;-75
2022/06/19 07:41:27;;;;;;;11.45;1.35;;;;;;;16.86;59.50;101113.38;5039187;28;20112;-75
2022/06/19 07:43:56;;;;;;;7.15;1.35;;;;;;;16.83;59.15;101106.41;5033930;28;20045;-75
2022/06/19 07:46:24;;;;;;;8.13;1.40;;;;;;;16.76;58.27;101129.84;5047676;28;20050;-75
2022/06/19 07:51:37;;;;;;;8.80;1.48;;;;;;;16.65;58.46;101104.72;5048551;28;20033;-74
2022/06/19 07:54:04;;;;;;;6.95;1.13;;;;;;;16.60;58.74;101118.25;5041738;28;20522;-75
2022/06/19 07:56:31;;;;;;;7.88;1.52;;;;;;;16.53;58.87;101115.06;5047151;28;20115;-76
2022/06/19 07:58:59;;;;;;;5.18;1.25;;;;;;;16.44;59.17;101102.22;5047836;28;20065;-75
2022/06/19 08:01:27;;;;;;;7.85;1.80;;;;;;;16.33;59.40;101059.34;5049467;28;20508;-75
2022/06/19 08:04:14;;;;;;;6.75;1.20;;;;;;;16.21;59.33;101061.69;5042848;28;20042;-76
2022/06/19 08:06:41;;;;;;;5.47;1.05;;;;;;;16.11;59.94;101050.66;5049086;28;20963;-76
2022/06/19 08:09:08;;;;;;;8.32;1.55;;;;;;;16.06;60.47;101044.69;5046163;28;20120;-74
2022/06/19 08:11:36;;;;;;;6.85;1.27;;;;;;;16.00;60.36;101060.97;5050191;28;20111;-76
2022/06/19 08:14:03;;;;;;;8.60;1.30;;;;;;;15.93;60.00;101072.81;5043665;28;20041;-76
2022/06/19 08:16:30;;;;;;;9.48;1.50;;;;;;;15.87;61.13;101092.63;5039018;28;20054;-76
2022/06/19 08:18:57;;;;;;;11.02;1.45;;;;;;;15.77;61.25;101043.47;5037812;28;20042;-77
2022/06/19 08:21:24;;;;;;;8.27;1.50;;;;;;;15.52;62.85;101047.28;5050159;28;20045;-76
2022/06/19 08:23:52;;;;;;;9.55;1.40;;;;;;;15.32;64.43;101051.75;5042418;28;20553;-76
2022/06/19 08:26:19;;;;;;;9.30;1.52;;;;;;;15.20;64.97;101054.97;5048973;28;20041;-77
2022/06/19 08:31:21;;;;;;;9.02;2.03;;;;;;;14.93;68.08;101083.66;5043453;28;20038;-76
2022/06/19 08:33:49;;;;;;;13.23;1.50;;;;;;;14.81;68.29;101106.28;5040730;28;20120;-74
2022/06/19 08:36:17;;;;;;;11.77;1.80;;;;;;;14.69;69.70;101108.56;5031822;28;20042;-74
2022/06/19 08:38:49;;;;;;;9.02;1.90;;;;;;;14.59;70.00;101094.81;5041448;28;20037;-72
2022/06/19 08:41:46;;;;;;;10.02;1.50;;;;;;;14.53;70.67;101081.78;5045297;28;20103;-71
2022/06/19 08:44:40;;;;;;;10.50;1.85;;;;;;;14.33;71.62;101087.06;5029224;28;20041;-72
2022/06/19 08:47:53;;;;;;;10.38;1.88;;;;;;;14.34;73.81;101025.16;5031143;28;20053;-73
2022/06/19 08:50:47;;;;;;;9.05;1.85;;;;;;;14.44;73.68;100963.72;5039209;28;20033;-75
2022/06/19 08:53:42;;;;;;;6.72;1.50;;;;;;;14.31;73.53;100909.47;5028670;28;20038;-71
2022/06/19 08:56:33;;;;;;;9.43;1.83;;;;;;;14.09;75.68;100944.03;5027952;28;20928;-72
2022/06/19 08:59:19;;;;;;;9.63;1.90;;;;;;;14.02;76.42;100974.38;5027856;28;20045;-73
2022/06/19 09:02:25;;;;;;;9.25;2.10;;;;;;;14.11;75.90;100976.63;5043234;28;20084;-73
2022/06/19 09:05:48;;;;;;;9.55;2.13;;;;;;;14.03;76.86;101050.31;5051021;28;20531;-74
2022/06/19 09:08:56;;;;;;;12.43;2.30;;;;;;;14.22;78.79;100952.31;5033246;28;20042;-73
2022/06/19 09:11:55;;;;;;;12.88;2.30;;;;;;;14.18;77.96;100986.06;5037290;28;20050;-74
2022/06/19 09:14:59;;;;;;;7.05;1.90;;;;;;;14.40;77.60;100961.22;5020237;28;20097;-74
2022/06/19 09:17:54;;;;;;;10.27;2.03;;;;;;;14.41;77.38;100945.25;5029291;28;20050;-73
2022/06/19 09:20:40;;;;;;;;;;;;;;;14.39;78.17;100986.06;5035411;28;20042;-73
2022/06/19 09:23:39;;;;;;;13.23;2.40;;;;;;;14.62;77.12;100976.19;5045228;28;19925;-74
2022/06/19 09:26:20;;;;;;;13.57;2.47;;;;;;;14.77;77.14;101001.19;5047493;28;20042;-72
2022/06/19 09:29:09;;;;;;;13.80;2.47;;;;;;;14.93;77.37;101047.38;5029938;28;20474;-72
2022/06/19 09:32:01;;;;;;;13.50;2.90;;;;;;;14.98;77.70;101077.19;5037478;28;20928;-74
2022/06/19 09:34:58;;;;;;;12.25;2.08;;;;;;;15.03;77.19;101096.44;5043222;28;20038;-74
2022/06/19 09:37:43;;;;;;;8.80;1.92;;;;;;;14.97;73.61;101102.03;5047794;28;20052;-76
2022/06/19 09:40:43;;;;;;;7.40;1.85;;;;;;;14.84;73.38;101107.00;5048605;28;20041;-74
2022/06/19 09:43:36;;;;;;;8.50;1.90;;;;;;;14.92;72.77;101112.00;5049983;28;20052;-74
2022/06/19 09:46:18;;;;;;;8.88;1.88;;;;;;;14.99;71.84;101096.66;5042932;28;20050;-74
2022/06/19 09:49:06;;;;;;;7.20;1.75;;;;;;;15.14;70.23;101092.44;5037034;28;20034;-76
2022/06/19 09:51:48;;;;;;;8.27;2.00;;;;;;;15.30;70.39;101082.00;5046782;28;20093;-75
2022/06/19 09:54:37;;;;;;;8.65;1.50;;;;;;;15.62;69.79;101053.88;5045592;28;20042;-75
2022/06/19 09:57:29;;;;;;;5.00;1.48;;;;;;;16.13;66.90;101016.84;5045470;28;20099;-75
2022/06/19 10:00:12;;;;;;;6.85;1.52;;;;;;;16.64;65.04;100985.88;5045050;28;20048;-73
2022/06/19 10:03:31;;;;;;;3.53;0.98;;;;;;;16.77;62.06;100976.31;5044972;28;20037;-73
2022/06/19 10:06:19;;;;;;;7.40;1.73;;;;;;;16.69;63.65;100984.69;5044131;28;20052;-75
2022/06/19 10:08:55;;;;;;;6.00;1.35;;;;;;;17.06;62.27;100988.03;5037999;28;20508;-75
2022/06/19 10:11:30;;;;;;;6.22;1.67;;;;;;;17.33;61.99;100983.91;5032338;28;20519;-78
2022/06/19 10:14:10;;;;;;;11.63;1.70;;;;;;;17.45;62.42;100990.38;5030445;28;20500;-76
2022/06/19 10:16:50;;;;;;;8.00;1.70;;;;;;;17.45;61.56;100977.91;5035989;28;20117;-77
2022/06/19 10:19:37;;;;;;;12.85;2.08;;;;;;;17.42;61.34;100958.56;5047463;28;20566;-76
2022/06/19 10:22:34;;;;;;;6.78;1.60;;;;;;;17.43;62.61;100954.97;5036691;28;20125;-77
2022/06/19 10:25:13;;;;;;;9.30;2.20;;;;;;;17.59;60.67;100939.78;5045565;28;20037;-77
2022/06/19 10:28:15;;;;;;;8.70;2.00;;;;;;;17.54;62.96;100949.88;5030506;28;20100;-77
2022/06/19 10:31:00;;;;;;;9.43;1.80;;;;;;;17.66;62.55;100948.28;5034875;28;20504;-77
2022/06/19 10:33:47;;;;;;;6.22;1.73;;;;;;;17.86;59.15;100957.75;5044674;28;20119;-75
2022/06/19 10:36:17;;;;;;;7.72;1.95;;;;;;;18.00;60.46;100952.50;5045223;28;20127;-76
2022/06/19 10:39:18;;;;;;;8.18;2.20;;;;;;;18.29;60.11;100946.38;5048771;28;20038;-76
2022/06/19 10:42:20;;;;;;;8.80;1.90;;;;;;;18.64;58.14;100921.94;5038083;28;20038;-75
2022/06/19 10:45:16;;;;;;;7.90;1.80;;;;;;;18.72;58.65;100930.31;5030268;28;20049;-75
2022/06/19 10:47:55;;;;;;;7.15;1.55;;;;;;;19.03;59.66;100956.94;5029589;28;20049;-75
2022/06/19 10:50:34;;;;;;;8.75;1.73;;;;;;;19.34;54.99;100971.84;5029943;28;20045;-75
2022/06/19 10:53:38;;;;;;;5.28;1.27;;;;;;;19.27;53.33;100991.06;5031234;28;20820;-76
2022/06/19 10:56:27;;;;;;;7.17;1.50;;;;;;;19.09;52.61;100994.81;5037028;28;20063;-76
2022/06/19 10:58:56;;;;;;;5.40;1.40;;;;;;;18.92;53.42;100995.84;5049377;28;20042;-75
2022/06/19 11:05:00;;;;;;;6.07;1.30;;;;;;;18.83;53.67;100983.06;5041611;28;20127;-75
2022/06/19 11:07:30;;;;;;;7.30;1.50;;;;;;;18.82;53.12;100965.34;5042463;28;20045;-75
2022/06/19 11:10:15;;;;;;;6.03;1.50;;;;;;;18.94;53.41;100958.38;5043160;28;20077;-74
2022/06/19 11:12:49;;;;;;;9.70;1.60;;;;;;;18.92;53.75;100962.94;5033115;28;20575;-76
2022/06/19 11:15:36;;;;;;;5.95;1.60;;;;;;;18.93;53.56;100972.69;5046747;28;20108;-76
2022/06/19 11:18:15;;;;;;;6.28;1.80;;;;;;;18.97;54.43;100995.59;5042141;28;20124;-74
2022/06/19 11:21:00;;;;;;;7.82;1.60;;;;;;;19.20;52.44;101012.81;5047253;28;20052;-78
2022/06/19 11:23:37;;;;;;;6.05;1.40;;;;;;;19.28;53.04;101022.19;5033880;28;20038;-75
2022/06/19 11:26:07;;;;;;;7.85;1.92;;;;;;;19.45;53.26;101005.91;5047101;28;20100;-75
2022/06/19 11:28:48;;;;;;;7.28;1.65;;;;;;;19.91;51.89;100998.47;5041261;28;20045;-74
2022/06/19 11:31:34;;;;;;;7.97;1.70;;;;;;;20.04;52.25;101004.72;5042758;28;20104;-72
2022/06/19 11:37:44;;;;;;;11.57;1.70;;;;;;;20.48;52.39;101037.44;5043248;28;20079;-72
2022/06/19 11:40:27;;;;;;;4.70;1.52;;;;;;;20.74;50.50;101043.69;5037774;28;20061;-74
2022/06/19 11:42:59;;;;;;;6.15;1.27;;;;;;;20.94;48.52;101038.72;5043782;28;20423;-74
2022/06/19 11:46:02;;;;;;;6.53;1.70;;;;;;;20.84;49.85;101048.38;5039916;28;20111;-75
2022/06/19 11:48:30;;;;;;;7.13;1.83;;;;;;;20.97;48.07;101048.38;5047828;28;20041;-73
2022/06/19 11:50:58;;;;;;;8.10;1.70;;;;;;;20.92;48.98;101052.25;5047706;28;20125;-76
2022/06/19 11:53:41;;;;;;;5.05;1.35;;;;;;;20.96;49.42;101055.56;5047273;28;20045;-77
2022/06/19 11:56:43;;;;;;;8.00;1.50;;;;;;;21.06;46.98;101050.41;5041957;28;20045;-77
2022/06/19 11:59:22;;;;;;;5.85;1.25;;;;;;;21.02;47.97;101043.56;5042288;28;20041;-72
2022/06/19 12:01:51;;;;;;;4.72;1.30;;;;;;;21.01;47.57;101042.69;5038345;28;20574;-75
2022/06/19 12:04:31;;;;;;;5.30;1.38;;;;;;;21.12;47.03;101036.56;5048206;28;20041;-75
2022/06/19 12:07:22;;;;;;;3.28;1.08;;;;;;;21.25;48.52;101037.41;5047313;28;20092;-74
2022/06/19 12:10:03;;;;;;;5.88;1.45;;;;;;;21.48;47.26;101032.16;5043868;28;20080;-76
2022/06/19 12:12:34;;;;;;;6.90;1.40;;;;;;;21.56;45.71;101045.88;5041764;28;20064;-75
2022/06/19 12:15:14;;;;;;;3.25;0.90;;;;;;;21.68;46.30;101054.00;5045366;28;20096;-74